CCA424 EGLL-ZUTF
Flight info
| Callsign | CCA424 |
|---|---|
| Flight time | N/A |
| Altitude | 33000 |
| Route | BPK Q295 SOMVA DCT MAVAS DCT SPY DCT XEBOT DCT JUIST DCT DOSUR DCT KOTAM DCT EVONA P862 LUSIM/N0477F350 P862 NETNA DCT TUKMA P989 MEGAS/K0887F350 P989 OBIBA P997 AKUGI T635 SUNAD N155 UNISO B229 URMAN T631 SOREB A307 SP/K0882F370 B716 NIGOR/K0872S1130 Y962 MORIT B330 NOLOM/K0876S1160 B330 IPDAT/K0872S1130 B330 MEXAD MEXAD8M |
| Aircraft | B77W/H-SDE1E2E3FGHIJ2J3J4J5M1RWXY/LB1D1 |
Departure
| Time | 2026-05-07 23:32 |
|---|---|
| Airport | London Heathrow Airport (EGLL) |
Arrival
| Time | N/A |
|---|---|
| Airport | Chengdu Tianfu International Airport (ZUTF) |
| Time | Latitude | Longitude | Altitude | Speed | Heading |
|---|---|---|---|---|---|
| 2026-05-07 22:15 | 51.47266 | -0.44422 | 100 ft | 0 kts | 90° |
| 2026-05-07 23:15 | 51.47266 | -0.44435 | 100 ft | 2 kts | 91° |
| 2026-05-07 23:15 | 51.47266 | -0.44459 | 100 ft | 2 kts | 92° |
| 2026-05-07 23:15 | 51.47267 | -0.44483 | 100 ft | 2 kts | 91° |
| 2026-05-07 23:15 | 51.47267 | -0.44507 | 100 ft | 2 kts | 90° |
| 2026-05-07 23:16 | 51.47267 | -0.44523 | 100 ft | 1 kts | 90° |
| 2026-05-07 23:16 | 51.47264 | -0.44545 | 100 ft | 2 kts | 55° |
| 2026-05-07 23:16 | 51.47253 | -0.44560 | 100 ft | 2 kts | 16° |
| 2026-05-07 23:16 | 51.47245 | -0.44562 | 100 ft | 1 kts | 359° |
| 2026-05-07 23:17 | 51.47242 | -0.44562 | 100 ft | 0 kts | 359° |
| 2026-05-07 23:19 | 51.47243 | -0.44562 | 100 ft | 0 kts | 359° |
| 2026-05-07 23:19 | 51.47257 | -0.44562 | 100 ft | 3 kts | 360° |
| 2026-05-07 23:19 | 51.47298 | -0.44563 | 100 ft | 8 kts | 0° |
| 2026-05-07 23:19 | 51.47368 | -0.44562 | 99 ft | 12 kts | 1° |
| 2026-05-07 23:20 | 51.47436 | -0.44561 | 98 ft | 5 kts | 1° |
| 2026-05-07 23:20 | 51.47479 | -0.44541 | 97 ft | 7 kts | 45° |
| 2026-05-07 23:20 | 51.47501 | -0.44444 | 96 ft | 11 kts | 83° |
| 2026-05-07 23:20 | 51.47503 | -0.44318 | 96 ft | 11 kts | 89° |
| 2026-05-07 23:21 | 51.47504 | -0.44185 | 94 ft | 12 kts | 89° |
| 2026-05-07 23:21 | 51.47460 | -0.44066 | 90 ft | 13 kts | 155° |
| 2026-05-07 23:21 | 51.47372 | -0.44060 | 89 ft | 12 kts | 181° |
| 2026-05-07 23:21 | 51.47288 | -0.44062 | 90 ft | 10 kts | 181° |
| 2026-05-07 23:22 | 51.47220 | -0.44063 | 91 ft | 8 kts | 181° |
| 2026-05-07 23:22 | 51.47165 | -0.44061 | 92 ft | 7 kts | 179° |
| 2026-05-07 23:22 | 51.47113 | -0.44059 | 92 ft | 8 kts | 179° |
| 2026-05-07 23:22 | 51.47044 | -0.44057 | 92 ft | 11 kts | 179° |
| 2026-05-07 23:23 | 51.46955 | -0.44054 | 92 ft | 14 kts | 179° |
| 2026-05-07 23:23 | 51.46838 | -0.44057 | 92 ft | 18 kts | 181° |
| 2026-05-07 23:23 | 51.46737 | -0.44054 | 92 ft | 12 kts | 181° |
| 2026-05-07 23:23 | 51.46669 | -0.44130 | 92 ft | 13 kts | 261° |
| 2026-05-07 23:24 | 51.46665 | -0.44296 | 93 ft | 16 kts | 269° |
| 2026-05-07 23:24 | 51.46663 | -0.44494 | 93 ft | 19 kts | 271° |
| 2026-05-07 23:24 | 51.46663 | -0.44707 | 96 ft | 19 kts | 270° |
| 2026-05-07 23:24 | 51.46662 | -0.44937 | 98 ft | 20 kts | 270° |
| 2026-05-07 23:25 | 51.46661 | -0.45175 | 99 ft | 22 kts | 271° |
| 2026-05-07 23:25 | 51.46662 | -0.45450 | 94 ft | 26 kts | 270° |
| 2026-05-07 23:25 | 51.46660 | -0.45760 | 90 ft | 27 kts | 269° |
| 2026-05-07 23:25 | 51.46658 | -0.46051 | 90 ft | 24 kts | 270° |
| 2026-05-07 23:26 | 51.46658 | -0.46317 | 87 ft | 23 kts | 270° |
| 2026-05-07 23:26 | 51.46656 | -0.46569 | 85 ft | 22 kts | 269° |
| 2026-05-07 23:26 | 51.46656 | -0.46811 | 83 ft | 21 kts | 270° |
| 2026-05-07 23:26 | 51.46657 | -0.47035 | 83 ft | 18 kts | 271° |
| 2026-05-07 23:27 | 51.46651 | -0.47413 | 85 ft | 14 kts | 266° |
| 2026-05-07 23:27 | 51.46648 | -0.47558 | 86 ft | 12 kts | 272° |
| 2026-05-07 23:27 | 51.46652 | -0.47721 | 86 ft | 16 kts | 272° |
| 2026-05-07 23:28 | 51.46654 | -0.47934 | 86 ft | 21 kts | 271° |
| 2026-05-07 23:28 | 51.46652 | -0.48186 | 86 ft | 24 kts | 270° |
| 2026-05-07 23:28 | 51.46651 | -0.48468 | 83 ft | 25 kts | 270° |
| 2026-05-07 23:28 | 51.46649 | -0.48633 | 83 ft | 12 kts | 269° |
| 2026-05-07 23:29 | 51.46630 | -0.48723 | 83 ft | 8 kts | 230° |
| 2026-05-07 23:29 | 51.46585 | -0.48765 | 83 ft | 7 kts | 199° |
| 2026-05-07 23:29 | 51.46541 | -0.48775 | 83 ft | 7 kts | 172° |
| 2026-05-07 23:29 | 51.46492 | -0.48723 | 83 ft | 9 kts | 123° |
| 2026-05-07 23:30 | 51.46479 | -0.48641 | 83 ft | 6 kts | 91° |
| 2026-05-07 23:30 | 51.46478 | -0.48542 | 83 ft | 18 kts | 91° |
| 2026-05-07 23:30 | 51.46478 | -0.48514 | 83 ft | 0 kts | 91° |
| 2026-05-07 23:31 | 51.46477 | -0.48465 | 83 ft | 21 kts | 92° |
| 2026-05-07 23:31 | 51.46479 | -0.47829 | 87 ft | 91 kts | 91° |
| 2026-05-07 23:31 | 51.46486 | -0.46458 | 88 ft | 151 kts | 90° |
| 2026-05-07 23:31 | 51.46492 | -0.44559 | 332 ft | 183 kts | 91° |
| 2026-05-07 23:32 | 51.46524 | -0.42539 | 1112 ft | 179 kts | 89° |
| 2026-05-07 23:32 | 51.46604 | -0.40535 | 1639 ft | 183 kts | 86° |
| 2026-05-07 23:32 | 51.46935 | -0.38587 | 2164 ft | 186 kts | 63° |
| 2026-05-07 23:32 | 51.47743 | -0.36901 | 2482 ft | 200 kts | 51° |
| 2026-05-07 23:33 | 51.48726 | -0.35216 | 2785 ft | 218 kts | 50° |
| 2026-05-07 23:33 | 51.49754 | -0.33299 | 3134 ft | 233 kts | 52° |
| 2026-05-07 23:33 | 51.50835 | -0.31225 | 3502 ft | 249 kts | 52° |
| 2026-05-07 23:33 | 51.51972 | -0.29037 | 3950 ft | 261 kts | 52° |
| 2026-05-07 23:34 | 51.52959 | -0.26627 | 4550 ft | 263 kts | 68° |
| 2026-05-07 23:34 | 51.53603 | -0.23894 | 5211 ft | 265 kts | 72° |
| 2026-05-07 23:34 | 51.54196 | -0.21085 | 5826 ft | 268 kts | 72° |
| 2026-05-07 23:34 | 51.55037 | -0.18429 | 5948 ft | 269 kts | 50° |
| 2026-05-07 23:35 | 51.56507 | -0.16594 | 5960 ft | 272 kts | 24° |
| 2026-05-07 23:35 | 51.58331 | -0.16003 | 5958 ft | 273 kts | 356° |
| 2026-05-07 23:35 | 51.60226 | -0.16570 | 6186 ft | 281 kts | 352° |
| 2026-05-07 23:35 | 51.62141 | -0.16457 | 6970 ft | 275 kts | 12° |
| 2026-05-07 23:36 | 51.63994 | -0.15739 | 7595 ft | 278 kts | 15° |
| 2026-05-07 23:36 | 51.65850 | -0.14891 | 8173 ft | 281 kts | 16° |
| 2026-05-07 23:36 | 51.67717 | -0.14024 | 8756 ft | 284 kts | 16° |
| 2026-05-07 23:36 | 51.69617 | -0.13145 | 9414 ft | 287 kts | 15° |
| 2026-05-07 23:37 | 51.71544 | -0.12248 | 9956 ft | 290 kts | 18° |
| 2026-05-07 23:37 | 51.73357 | -0.10847 | 10331 ft | 299 kts | 32° |
| 2026-05-07 23:37 | 51.75068 | -0.08732 | 10492 ft | 315 kts | 44° |
| 2026-05-07 23:37 | 51.76514 | -0.06029 | 10661 ft | 332 kts | 56° |
| 2026-05-07 23:38 | 51.77642 | -0.02666 | 10820 ft | 347 kts | 69° |
| 2026-05-07 23:38 | 51.78289 | 0.01155 | 10955 ft | 362 kts | 83° |
| 2026-05-07 23:38 | 51.78292 | 0.05275 | 11065 ft | 375 kts | 98° |
| 2026-05-07 23:38 | 51.77974 | 0.09509 | 11333 ft | 385 kts | 94° |
| 2026-05-07 23:39 | 51.77895 | 0.13822 | 11812 ft | 388 kts | 90° |
| 2026-05-07 23:39 | 51.77971 | 0.18158 | 12304 ft | 391 kts | 88° |
| 2026-05-07 23:39 | 51.78137 | 0.22567 | 12773 ft | 394 kts | 86° |
| 2026-05-07 23:39 | 51.78363 | 0.26989 | 13240 ft | 398 kts | 85° |
| 2026-05-07 23:40 | 51.78631 | 0.31388 | 13700 ft | 401 kts | 85° |
| 2026-05-07 23:40 | 51.78930 | 0.35868 | 14161 ft | 404 kts | 84° |
| 2026-05-07 23:40 | 51.79250 | 0.40396 | 14628 ft | 407 kts | 84° |
| 2026-05-07 23:40 | 51.79579 | 0.44892 | 15060 ft | 409 kts | 84° |
| 2026-05-07 23:41 | 51.79922 | 0.49461 | 15539 ft | 411 kts | 83° |
| 2026-05-07 23:41 | 51.80268 | 0.54027 | 15953 ft | 414 kts | 83° |
| 2026-05-07 23:41 | 51.80622 | 0.58672 | 16377 ft | 417 kts | 83° |
| 2026-05-07 23:41 | 51.81017 | 0.63286 | 16783 ft | 420 kts | 79° |
| 2026-05-07 23:42 | 51.81810 | 0.67818 | 17150 ft | 423 kts | 70° |
| 2026-05-07 23:42 | 51.82913 | 0.72196 | 17557 ft | 425 kts | 68° |
| 2026-05-07 23:42 | 51.84071 | 0.76647 | 17950 ft | 427 kts | 68° |
| 2026-05-07 23:42 | 51.85210 | 0.81032 | 18327 ft | 430 kts | 68° |
| 2026-05-07 23:43 | 51.86369 | 0.85503 | 18699 ft | 432 kts | 68° |
| 2026-05-07 23:43 | 51.87526 | 0.89983 | 19058 ft | 435 kts | 68° |
| 2026-05-07 23:43 | 51.88693 | 0.94517 | 19405 ft | 437 kts | 68° |
| 2026-05-07 23:43 | 51.89856 | 0.99042 | 19745 ft | 440 kts | 68° |
| 2026-05-07 23:44 | 51.91021 | 1.03588 | 20072 ft | 442 kts | 68° |
| 2026-05-07 23:44 | 51.92195 | 1.08178 | 20401 ft | 444 kts | 68° |
| 2026-05-07 23:44 | 51.93386 | 1.12843 | 20711 ft | 447 kts | 68° |
| 2026-05-07 23:44 | 51.94561 | 1.17459 | 21011 ft | 449 kts | 68° |
| 2026-05-07 23:45 | 51.95744 | 1.22112 | 21320 ft | 451 kts | 68° |
| 2026-05-07 23:45 | 51.96938 | 1.26820 | 21607 ft | 453 kts | 68° |
| 2026-05-07 23:45 | 51.98138 | 1.31565 | 21895 ft | 455 kts | 68° |
| 2026-05-07 23:45 | 51.99331 | 1.36292 | 22171 ft | 457 kts | 68° |
| 2026-05-07 23:46 | 52.00539 | 1.41087 | 22453 ft | 459 kts | 68° |
| 2026-05-07 23:46 | 52.01739 | 1.45858 | 22703 ft | 461 kts | 68° |
| 2026-05-07 23:46 | 52.02935 | 1.50626 | 22969 ft | 463 kts | 68° |
| 2026-05-07 23:46 | 52.04145 | 1.55462 | 23228 ft | 464 kts | 68° |
| 2026-05-07 23:47 | 52.05368 | 1.60359 | 23467 ft | 466 kts | 68° |
| 2026-05-07 23:47 | 52.06573 | 1.65192 | 23701 ft | 468 kts | 68° |
| 2026-05-07 23:47 | 52.07790 | 1.70086 | 23921 ft | 470 kts | 68° |
| 2026-05-07 23:47 | 52.09010 | 1.75005 | 24163 ft | 471 kts | 68° |
| 2026-05-07 23:48 | 52.10244 | 1.79988 | 24393 ft | 473 kts | 68° |
| 2026-05-07 23:48 | 52.11463 | 1.84924 | 24597 ft | 474 kts | 68° |
| 2026-05-07 23:48 | 52.12691 | 1.89910 | 24786 ft | 476 kts | 68° |
| 2026-05-07 23:48 | 52.13908 | 1.94857 | 24973 ft | 478 kts | 68° |
| 2026-05-07 23:49 | 52.15144 | 1.99896 | 25175 ft | 479 kts | 68° |
| 2026-05-07 23:49 | 52.16375 | 2.04923 | 25361 ft | 480 kts | 68° |
| 2026-05-07 23:49 | 52.17596 | 2.09922 | 25557 ft | 481 kts | 68° |
| 2026-05-07 23:49 | 52.18840 | 2.15031 | 25731 ft | 483 kts | 68° |
| 2026-05-07 23:50 | 52.20073 | 2.20102 | 25908 ft | 484 kts | 68° |
| 2026-05-07 23:50 | 52.21305 | 2.25183 | 26087 ft | 485 kts | 68° |
| 2026-05-07 23:50 | 52.22543 | 2.30297 | 26258 ft | 487 kts | 68° |
| 2026-05-07 23:50 | 52.23768 | 2.35371 | 26432 ft | 488 kts | 68° |
| 2026-05-07 23:51 | 52.25015 | 2.40550 | 26614 ft | 489 kts | 68° |
| 2026-05-07 23:51 | 52.26245 | 2.45670 | 26782 ft | 490 kts | 68° |
| 2026-05-07 23:51 | 52.27496 | 2.50890 | 26933 ft | 492 kts | 68° |
| 2026-05-07 23:51 | 52.28728 | 2.56044 | 27103 ft | 493 kts | 68° |
| 2026-05-07 23:52 | 52.29976 | 2.61277 | 27277 ft | 494 kts | 68° |
| 2026-05-07 23:52 | 52.31089 | 2.66575 | 27446 ft | 495 kts | 74° |
| 2026-05-07 23:52 | 52.32051 | 2.71934 | 27599 ft | 496 kts | 74° |
| 2026-05-07 23:52 | 52.33016 | 2.77395 | 27734 ft | 497 kts | 74° |
| 2026-05-07 23:53 | 52.33970 | 2.82820 | 27894 ft | 498 kts | 74° |
| 2026-05-07 23:53 | 52.34914 | 2.88199 | 28048 ft | 499 kts | 74° |
| 2026-05-07 23:53 | 52.35882 | 2.93736 | 28178 ft | 501 kts | 74° |
| 2026-05-07 23:53 | 52.36830 | 2.99175 | 28327 ft | 502 kts | 74° |
| 2026-05-07 23:54 | 52.37791 | 3.04704 | 28500 ft | 502 kts | 74° |
| 2026-05-07 23:54 | 52.38745 | 3.10215 | 28649 ft | 503 kts | 74° |
| 2026-05-07 23:54 | 52.39675 | 3.15760 | 28784 ft | 504 kts | 77° |
| 2026-05-07 23:54 | 52.40296 | 3.21405 | 28933 ft | 505 kts | 82° |
| 2026-05-07 23:55 | 52.40815 | 3.27075 | 29064 ft | 506 kts | 82° |
| 2026-05-07 23:55 | 52.41325 | 3.32743 | 29200 ft | 507 kts | 82° |
| 2026-05-07 23:55 | 52.41837 | 3.38480 | 29389 ft | 507 kts | 82° |
| 2026-05-07 23:55 | 52.42343 | 3.44167 | 29613 ft | 506 kts | 82° |
| 2026-05-07 23:56 | 52.42846 | 3.49850 | 29830 ft | 505 kts | 82° |
| 2026-05-07 23:56 | 52.43346 | 3.55533 | 30053 ft | 504 kts | 82° |
| 2026-05-07 23:56 | 52.43843 | 3.61210 | 30264 ft | 504 kts | 82° |
| 2026-05-07 23:56 | 52.44333 | 3.66829 | 30468 ft | 503 kts | 83° |
| 2026-05-07 23:57 | 52.44822 | 3.72474 | 30640 ft | 503 kts | 83° |
| 2026-05-07 23:57 | 52.45314 | 3.78182 | 30809 ft | 503 kts | 83° |
| 2026-05-07 23:57 | 52.45795 | 3.83802 | 30964 ft | 503 kts | 83° |
| 2026-05-07 23:57 | 52.46278 | 3.89461 | 31119 ft | 503 kts | 83° |
| 2026-05-07 23:58 | 52.46757 | 3.95122 | 31271 ft | 503 kts | 83° |
| 2026-05-07 23:58 | 52.47239 | 4.00838 | 31431 ft | 502 kts | 83° |
| 2026-05-07 23:58 | 52.47709 | 4.06453 | 31604 ft | 502 kts | 83° |
| 2026-05-07 23:58 | 52.48182 | 4.12138 | 31770 ft | 501 kts | 83° |
| 2026-05-07 23:59 | 52.48643 | 4.17707 | 31916 ft | 501 kts | 83° |
| 2026-05-07 23:59 | 52.49106 | 4.23342 | 32055 ft | 500 kts | 83° |
| 2026-05-07 23:59 | 52.49571 | 4.29019 | 32181 ft | 500 kts | 83° |
| 2026-05-07 23:59 | 52.50029 | 4.34664 | 32330 ft | 500 kts | 83° |
| 2026-05-08 00:00 | 52.50484 | 4.40295 | 32500 ft | 499 kts | 83° |
| 2026-05-08 00:00 | 52.50932 | 4.45879 | 32612 ft | 499 kts | 83° |
| 2026-05-08 00:00 | 52.51828 | 4.57141 | 32853 ft | 499 kts | 83° |
| 2026-05-08 00:01 | 52.52273 | 4.62783 | 33001 ft | 498 kts | 83° |
| 2026-05-08 00:01 | 52.52710 | 4.68358 | 33094 ft | 497 kts | 84° |
| 2026-05-08 00:01 | 52.53700 | 4.79582 | 33102 ft | 497 kts | 77° |
| 2026-05-08 00:02 | 52.56190 | 4.90127 | 33102 ft | 498 kts | 60° |
| 2026-05-08 00:02 | 52.60148 | 4.99427 | 33106 ft | 499 kts | 53° |
| 2026-05-08 00:03 | 52.64264 | 5.08540 | 33111 ft | 499 kts | 53° |
| 2026-05-08 00:03 | 52.68376 | 5.17742 | 33112 ft | 498 kts | 53° |
| 2026-05-08 00:04 | 52.72432 | 5.26890 | 33117 ft | 498 kts | 54° |
| 2026-05-08 00:04 | 52.76503 | 5.36127 | 33115 ft | 498 kts | 54° |
| 2026-05-08 00:05 | 52.80529 | 5.45304 | 33115 ft | 497 kts | 54° |
| 2026-05-08 00:05 | 52.84582 | 5.54584 | 33117 ft | 497 kts | 54° |
| 2026-05-08 00:06 | 52.88578 | 5.63771 | 33116 ft | 496 kts | 54° |
| 2026-05-08 00:06 | 52.92596 | 5.73042 | 33117 ft | 496 kts | 55° |
| 2026-05-08 00:07 | 52.96604 | 5.82327 | 33118 ft | 496 kts | 55° |
| 2026-05-08 00:07 | 53.00622 | 5.91669 | 33119 ft | 496 kts | 55° |
| 2026-05-08 00:08 | 53.04614 | 6.00985 | 33120 ft | 495 kts | 55° |
| 2026-05-08 00:08 | 53.08590 | 6.10296 | 33121 ft | 495 kts | 55° |
| 2026-05-08 00:09 | 53.12564 | 6.19642 | 33121 ft | 495 kts | 55° |
| 2026-05-08 00:09 | 53.16504 | 6.28937 | 33119 ft | 494 kts | 55° |
| 2026-05-08 00:10 | 53.20449 | 6.38279 | 33126 ft | 494 kts | 56° |
| 2026-05-08 00:10 | 53.24361 | 6.47580 | 33123 ft | 494 kts | 56° |
| 2026-05-08 00:11 | 53.28299 | 6.56976 | 33123 ft | 494 kts | 56° |
| 2026-05-08 00:11 | 53.32721 | 6.65620 | 33120 ft | 493 kts | 42° |
| 2026-05-08 00:12 | 53.38295 | 6.72252 | 33130 ft | 494 kts | 34° |
| 2026-05-08 00:12 | 53.44053 | 6.78531 | 33127 ft | 495 kts | 34° |
| 2026-05-08 00:13 | 53.49781 | 6.84837 | 33136 ft | 493 kts | 34° |
| 2026-05-08 00:13 | 53.55455 | 6.91221 | 33127 ft | 491 kts | 39° |
| 2026-05-08 00:14 | 53.60399 | 6.98930 | 33137 ft | 488 kts | 46° |
| 2026-05-08 00:14 | 53.65217 | 7.07026 | 33142 ft | 486 kts | 46° |
| 2026-05-08 00:15 | 53.69963 | 7.15031 | 33148 ft | 483 kts | 46° |
| 2026-05-08 00:15 | 53.74671 | 7.22999 | 33148 ft | 482 kts | 46° |
| 2026-05-08 00:16 | 53.79401 | 7.31032 | 33151 ft | 481 kts | 46° |
| 2026-05-08 00:16 | 53.84095 | 7.39030 | 33152 ft | 480 kts | 46° |
| 2026-05-08 00:17 | 53.88785 | 7.47050 | 33151 ft | 479 kts | 46° |
| 2026-05-08 00:17 | 53.93444 | 7.55043 | 33152 ft | 478 kts | 46° |
| 2026-05-08 00:18 | 53.98074 | 7.63013 | 33156 ft | 476 kts | 46° |
| 2026-05-08 00:18 | 54.02718 | 7.71032 | 33158 ft | 476 kts | 47° |
| 2026-05-08 00:19 | 54.07345 | 7.79053 | 33159 ft | 476 kts | 47° |
| 2026-05-08 00:19 | 54.11966 | 7.87087 | 33158 ft | 476 kts | 47° |
| 2026-05-08 00:20 | 54.16560 | 7.95103 | 33157 ft | 475 kts | 47° |
| 2026-05-08 00:20 | 54.21192 | 8.03213 | 33158 ft | 476 kts | 47° |
| 2026-05-08 00:21 | 54.25767 | 8.11250 | 33158 ft | 475 kts | 47° |
| 2026-05-08 00:21 | 54.30378 | 8.19377 | 33157 ft | 475 kts | 47° |
| 2026-05-08 00:22 | 54.34945 | 8.27454 | 33155 ft | 475 kts | 47° |
| 2026-05-08 00:22 | 54.39531 | 8.35595 | 33156 ft | 475 kts | 47° |
| 2026-05-08 00:23 | 54.44084 | 8.43702 | 33154 ft | 474 kts | 47° |
| 2026-05-08 00:23 | 54.48667 | 8.51891 | 33157 ft | 474 kts | 47° |
| 2026-05-08 00:24 | 54.53218 | 8.60051 | 33154 ft | 474 kts | 47° |
| 2026-05-08 00:24 | 54.57769 | 8.68240 | 33155 ft | 474 kts | 48° |
| 2026-05-08 00:25 | 54.62315 | 8.76449 | 33153 ft | 474 kts | 48° |
| 2026-05-08 00:25 | 54.66840 | 8.84646 | 33154 ft | 473 kts | 48° |
| 2026-05-08 00:26 | 54.71326 | 8.92803 | 33155 ft | 473 kts | 48° |
| 2026-05-08 00:26 | 54.75835 | 9.01028 | 33153 ft | 472 kts | 48° |
| 2026-05-08 00:27 | 54.80336 | 9.09266 | 33154 ft | 472 kts | 48° |
| 2026-05-08 00:27 | 54.84711 | 9.17694 | 33153 ft | 470 kts | 55° |
| 2026-05-08 00:28 | 54.87827 | 9.27493 | 33157 ft | 468 kts | 66° |
| 2026-05-08 00:28 | 54.90514 | 9.37820 | 33155 ft | 468 kts | 66° |
| 2026-05-08 00:29 | 54.93147 | 9.48086 | 33156 ft | 467 kts | 66° |
| 2026-05-08 00:29 | 54.95757 | 9.58352 | 33161 ft | 467 kts | 66° |
| 2026-05-08 00:30 | 54.98347 | 9.68614 | 33165 ft | 466 kts | 67° |
| 2026-05-08 00:30 | 55.00952 | 9.78998 | 33168 ft | 466 kts | 67° |
| 2026-05-08 00:31 | 55.03513 | 9.89254 | 33168 ft | 466 kts | 67° |
| 2026-05-08 00:31 | 55.06091 | 9.99636 | 33163 ft | 466 kts | 67° |
| 2026-05-08 00:32 | 55.08648 | 10.09984 | 33161 ft | 466 kts | 67° |
| 2026-05-08 00:32 | 55.11186 | 10.20302 | 33159 ft | 466 kts | 67° |
| 2026-05-08 00:33 | 55.13735 | 10.30715 | 33157 ft | 466 kts | 67° |
| 2026-05-08 00:33 | 55.16260 | 10.41079 | 33157 ft | 466 kts | 67° |
| 2026-05-08 00:34 | 55.18775 | 10.51453 | 33157 ft | 466 kts | 67° |
| 2026-05-08 00:34 | 55.21279 | 10.61831 | 33156 ft | 466 kts | 67° |
| 2026-05-08 00:35 | 55.23783 | 10.72254 | 33164 ft | 466 kts | 68° |
| 2026-05-08 00:35 | 55.26276 | 10.82686 | 33155 ft | 467 kts | 68° |
| 2026-05-08 00:36 | 55.28769 | 10.93167 | 33157 ft | 466 kts | 68° |
| 2026-05-08 00:36 | 55.31251 | 11.03655 | 33158 ft | 467 kts | 68° |
| 2026-05-08 00:37 | 55.33721 | 11.14142 | 33157 ft | 467 kts | 68° |
| 2026-05-08 00:38 | 55.37413 | 11.29915 | 33158 ft | 467 kts | 68° |
| 2026-05-08 00:38 | 55.39858 | 11.40422 | 33153 ft | 467 kts | 68° |
| 2026-05-08 00:39 | 55.42296 | 11.50954 | 33150 ft | 467 kts | 68° |
| 2026-05-08 00:39 | 55.44744 | 11.61579 | 33153 ft | 467 kts | 68° |
| 2026-05-08 00:40 | 55.47161 | 11.72123 | 33156 ft | 467 kts | 68° |
| 2026-05-08 00:40 | 55.49578 | 11.82719 | 33159 ft | 467 kts | 68° |
| 2026-05-08 00:41 | 55.51971 | 11.93264 | 33159 ft | 467 kts | 68° |
| 2026-05-08 00:41 | 55.54364 | 12.03862 | 33162 ft | 467 kts | 68° |
| 2026-05-08 00:42 | 55.56750 | 12.14484 | 33163 ft | 468 kts | 68° |
| 2026-05-08 00:42 | 55.59137 | 12.25164 | 33095 ft | 469 kts | 68° |
| 2026-05-08 00:42 | 55.60283 | 12.30569 | 33207 ft | 465 kts | 70° |
| 2026-05-08 00:43 | 55.61244 | 12.35881 | 33613 ft | 454 kts | 74° |
| 2026-05-08 00:43 | 55.61941 | 12.41195 | 34509 ft | 431 kts | 79° |
| 2026-05-08 00:43 | 55.62255 | 12.45967 | 35435 ft | 402 kts | 86° |
| 2026-05-08 00:43 | 55.62375 | 12.49675 | 35749 ft | 388 kts | 79° |
| 2026-05-08 00:44 | 55.63349 | 12.54087 | 33961 ft | 445 kts | 49° |